Time;durP1;ratioP1;P1;durP2;ratioP2;P2;SDS_P1;SDS_P2;PMS_P1;PMS_P2;Temp;Humidity;BMP_temperature;BMP_pressure;BME280_temperature;BME280_humidity;BME280_pressure;Samples;Min_cycle;Max_cycle;Signal;HPM_P1;HPM_P2
2022/10/04 00:02:15;;;;;;;;;;;19.80;93.80;;;;;;5088907;28;19922;-67
2022/10/04 00:04:45;;;;;;;;;;;19.80;93.70;;;;;;5093922;28;20611;-68
2022/10/04 00:07:11;;;;;;;;;;;20.00;93.30;;;;;;5094464;28;19930;-67
2022/10/04 00:09:44;;;;;;;;;;;20.20;93.10;;;;;;5094563;28;19908;-67
2022/10/04 00:12:21;;;;;;;;;;;20.30;92.10;;;;;;5094164;28;19913;-67
2022/10/04 00:14:49;;;;;;;;;;;20.50;91.90;;;;;;5093472;28;19954;-67
2022/10/04 00:17:36;;;;;;;;;;;20.60;92.00;;;;;;5091444;28;19928;-67
2022/10/04 00:20:22;;;;;;;;;;;20.60;92.00;;;;;;5094429;28;20345;-65
2022/10/04 00:23:07;;;;;;;;;;;20.60;92.10;;;;;;5093231;28;19912;-68
2022/10/04 00:25:35;;;;;;;;;;;20.60;91.70;;;;;;5089693;28;19912;-69
2022/10/04 00:28:33;;;;;;;;;;;20.70;91.60;;;;;;5090189;28;20023;-67
2022/10/04 00:31:11;;;;;;;;;;;20.70;91.50;;;;;;5047093;28;19909;-69
2022/10/04 00:33:39;;;;;;;;;;;20.90;91.60;;;;;;5091715;28;19923;-69
2022/10/04 00:36:24;;;;;;;;;;;21.00;91.10;;;;;;5092085;28;20008;-68
2022/10/04 00:39:10;;;;;;;;;;;21.00;91.20;;;;;;5092061;28;19908;-67
2022/10/04 00:41:46;;;;;;;;;;;21.00;91.00;;;;;;5091687;28;19916;-67
2022/10/04 00:44:33;;;;;;;;;;;21.10;91.10;;;;;;5091908;28;19916;-67
2022/10/04 00:47:00;;;;;;;;;;;21.30;90.90;;;;;;5041406;28;19917;-67
2022/10/04 00:49:38;;;;;;;;;;;21.40;90.10;;;;;;5092460;28;19950;-67
2022/10/04 00:52:26;;;;;;;;;;;21.50;90.10;;;;;;5073296;28;19912;-68
2022/10/04 00:54:55;;;;;;;;;;;21.60;90.10;;;;;;5089976;28;19934;-67
2022/10/04 00:57:25;;;;;;;;;;;21.70;89.50;;;;;;5090310;28;19927;-67
2022/10/04 00:59:54;;;;;;;;;;;21.90;89.90;;;;;;5090568;28;19908;-67
2022/10/04 01:02:23;;;;;;;;;;;22.00;89.30;;;;;;5076445;28;20343;-68
2022/10/04 01:04:52;;;;;;;;;;;22.10;88.70;;;;;;5071133;28;20018;-67
2022/10/04 01:07:22;;;;;;;;;;;22.30;90.30;;;;;;5090243;28;19956;-67
2022/10/04 01:09:57;;;;;;;;;;;22.40;89.00;;;;;;5092012;28;19999;-69
2022/10/04 01:12:39;;;;;;;;;;;22.60;88.80;;;;;;5087490;28;20396;-68
2022/10/04 01:15:08;;;;;;;;;;;22.70;89.00;;;;;;5072038;28;19921;-68
2022/10/04 01:17:34;;;;;;;;;;;22.90;88.00;;;;;;5089691;28;20011;-69
2022/10/04 01:20:01;;;;;;;;;;;22.90;86.90;;;;;;5086979;28;20006;-69
2022/10/04 01:22:32;;;;;;;;;;;23.10;89.40;;;;;;5083797;28;19908;-69
2022/10/04 01:24:59;;;;;;;;;;;23.40;88.80;;;;;;5080749;28;19960;-69
2022/10/04 01:27:35;;;;;;;;;;;23.50;88.10;;;;;;5090928;28;19920;-69
2022/10/04 01:30:03;;;;;;;;;;;23.50;89.50;;;;;;5090977;28;19916;-69
2022/10/04 01:32:31;;;;;;;;;;;23.60;88.10;;;;;;5082536;28;19919;-69
2022/10/04 01:34:58;;;;;;;;;;;23.60;87.80;;;;;;5091976;28;20045;-69
2022/10/04 01:37:24;;;;;;;;;;;23.50;89.50;;;;;;5069147;28;20330;-69
2022/10/04 01:39:51;;;;;;;;;;;23.60;86.90;;;;;;5084861;28;19912;-67
2022/10/04 01:42:25;;;;;;;;;;;23.60;86.30;;;;;;5091452;28;19916;-70
2022/10/04 01:45:09;;;;;;;;;;;23.90;86.80;;;;;;5087373;28;19970;-69
2022/10/04 01:47:40;;;;;;;;;;;24.10;86.90;;;;;;5078450;28;19966;-69
2022/10/04 01:50:15;;;;;;;;;;;24.30;86.60;;;;;;5092650;28;19951;-68
2022/10/04 01:52:46;;;;;;;;;;;24.60;84.80;;;;;;5084919;28;19939;-69
2022/10/04 01:55:14;;;;;;;;;;;24.70;85.40;;;;;;5090255;28;19999;-68
2022/10/04 01:57:44;;;;;;;;;;;24.70;87.30;;;;;;5086843;28;19916;-67
2022/10/04 02:00:12;;;;;;;;;;;24.70;84.20;;;;;;5090291;28;19912;-67
2022/10/04 02:02:53;;;;;;;;;;;24.80;84.90;;;;;;5086221;28;19955;-67
2022/10/04 02:05:26;;;;;;;;;;;24.70;85.10;;;;;;5072368;28;19956;-67
2022/10/04 02:07:54;;;;;;;;;;;24.50;84.90;;;;;;5090553;28;19972;-68
2022/10/04 02:10:25;;;;;;;;;;;24.30;85.70;;;;;;5083913;28;20144;-68
2022/10/04 02:12:53;;;;;;;;;;;24.50;85.30;;;;;;5079802;28;19908;-68
2022/10/04 02:15:21;;;;;;;;;;;24.70;86.90;;;;;;5090946;28;19911;-68
2022/10/04 02:17:49;;;;;;;;;;;25.00;84.70;;;;;;5082864;28;19920;-68
2022/10/04 02:20:24;;;;;;;;;;;25.10;86.40;;;;;;5072009;28;19916;-68
2022/10/04 02:23:01;;;;;;;;;;;24.90;83.50;;;;;;5055438;28;20019;-68
2022/10/04 02:25:28;;;;;;;;;;;24.70;83.60;;;;;;5090595;28;19912;-68
2022/10/04 02:27:55;;;;;;;;;;;24.40;85.00;;;;;;5092384;28;19920;-67
2022/10/04 02:30:23;;;;;;;;;;;24.30;83.60;;;;;;5090691;28;20551;-67
2022/10/04 02:32:59;;;;;;;;;;;24.40;84.00;;;;;;5090100;28;20529;-68
2022/10/04 02:35:51;;;;;;;;;;;24.50;84.30;;;;;;5088455;28;19920;-67
2022/10/04 02:38:24;;;;;;;;;;;24.70;84.20;;;;;;5089613;28;19956;-67
2022/10/04 02:41:02;;;;;;;;;;;24.70;85.10;;;;;;5090576;28;19912;-68
2022/10/04 02:43:37;;;;;;;;;;;24.80;83.60;;;;;;5091729;28;19912;-68
2022/10/04 02:46:17;;;;;;;;;;;25.30;81.70;;;;;;5074493;28;20010;-67
2022/10/04 02:48:55;;;;;;;;;;;25.40;82.00;;;;;;5076449;28;20351;-67
2022/10/04 02:51:28;;;;;;;;;;;25.60;83.60;;;;;;5072369;28;19916;-68
2022/10/04 02:53:58;;;;;;;;;;;26.00;80.50;;;;;;5060054;28;19920;-68
2022/10/04 02:56:25;;;;;;;;;;;26.90;81.60;;;;;;5078024;28;20011;-68
2022/10/04 02:58:52;;;;;;;;;;;27.80;76.40;;;;;;5086178;28;20372;-69
2022/10/04 03:01:36;;;;;;;;;;;28.60;77.20;;;;;;5089166;28;19912;-68
2022/10/04 03:04:02;;;;;;;;;;;29.00;72.50;;;;;;5081950;28;19912;-69
2022/10/04 03:06:31;;;;;;;;;;;29.10;72.20;;;;;;5080997;28;19916;-69
2022/10/04 03:09:05;;;;;;;;;;;29.10;74.10;;;;;;5089610;28;20058;-69
2022/10/04 03:11:36;;;;;;;;;;;28.60;72.10;;;;;;5081002;28;19965;-68
2022/10/04 03:14:05;;;;;;;;;;;27.90;72.40;;;;;;5075253;28;19912;-68
2022/10/04 03:16:39;;;;;;;;;;;27.30;73.40;;;;;;5086284;28;19916;-68
2022/10/04 03:19:07;;;;;;;;;;;26.40;73.40;;;;;;5070808;28;20395;-68
2022/10/04 03:21:35;;;;;;;;;;;25.90;75.40;;;;;;5078678;28;20596;-69
2022/10/04 03:24:06;;;;;;;;;;;25.40;76.10;;;;;;5074850;28;19913;-68
2022/10/04 03:26:45;;;;;;;;;;;25.10;77.20;;;;;;5082234;28;19954;-68
2022/10/04 03:29:13;;;;;;;;;;;25.00;77.40;;;;;;5090320;28;19962;-69
2022/10/04 03:31:42;;;;;;;;;;;24.90;77.20;;;;;;5095227;28;19947;-68
2022/10/04 03:34:16;;;;;;;;;;;24.80;77.60;;;;;;5087530;28;19912;-68
2022/10/04 03:36:44;;;;;;;;;;;24.90;78.00;;;;;;5087314;28;19915;-68
2022/10/04 03:39:11;;;;;;;;;;;24.90;77.40;;;;;;5093612;28;19912;-69
2022/10/04 03:41:39;;;;;;;;;;;25.00;77.00;;;;;;5093657;28;19912;-68
2022/10/04 03:44:07;;;;;;;;;;;25.20;77.10;;;;;;5089150;28;20371;-70
2022/10/04 03:46:35;;;;;;;;;;;25.30;76.80;;;;;;5091851;28;20050;-69
2022/10/04 03:49:01;;;;;;;;;;;25.30;77.30;;;;;;5092861;28;20383;-70
2022/10/04 03:51:28;;;;;;;;;;;25.30;77.30;;;;;;5093717;28;19916;-68
2022/10/04 03:53:59;;;;;;;;;;;25.30;77.40;;;;;;5090275;28;19915;-67
2022/10/04 03:56:27;;;;;;;;;;;25.10;77.80;;;;;;5088054;28;19991;-66
2022/10/04 03:58:54;;;;;;;;;;;24.90;78.70;;;;;;5084678;28;20098;-68
2022/10/04 04:01:21;;;;;;;;;;;24.80;77.90;;;;;;5073625;28;20353;-68
2022/10/04 04:04:14;;;;;;;;;;;24.50;77.40;;;;;;5074376;28;19983;-66
2022/10/04 04:06:46;;;;;;;;;;;24.30;78.20;;;;;;5090710;28;20337;-69
2022/10/04 04:09:22;;;;;;;;;;;23.90;78.50;;;;;;5055596;28;19939;-68
2022/10/04 04:11:50;;;;;;;;;;;23.80;79.80;;;;;;5076529;28;19908;-68
2022/10/04 04:14:22;;;;;;;;;;;23.90;79.50;;;;;;5084833;28;19915;-67
2022/10/04 04:16:49;;;;;;;;;;;23.80;80.30;;;;;;5086159;28;19923;-69
2022/10/04 04:19:17;;;;;;;;;;;24.00;80.50;;;;;;5094147;28;19938;-68
2022/10/04 04:21:45;;;;;;;;;;;24.10;80.10;;;;;;5085140;28;19930;-67
2022/10/04 04:24:21;;;;;;;;;;;24.20;79.80;;;;;;5073348;28;20403;-69
2022/10/04 04:26:52;;;;;;;;;;;24.10;78.20;;;;;;5086518;28;20051;-67
2022/10/04 04:29:18;;;;;;;;;;;24.00;79.00;;;;;;5091994;28;19977;-68
2022/10/04 04:31:49;;;;;;;;;;;24.00;79.70;;;;;;5087730;28;19962;-67
2022/10/04 04:34:28;;;;;;;;;;;24.40;77.90;;;;;;5086574;28;19957;-67
2022/10/04 04:36:59;;;;;;;;;;;24.50;75.60;;;;;;5087684;28;19915;-68
2022/10/04 04:39:40;;;;;;;;;;;24.30;76.50;;;;;;5094230;28;19912;-70
2022/10/04 04:42:12;;;;;;;;;;;24.40;77.20;;;;;;5094052;28;19959;-70
2022/10/04 04:44:46;;;;;;;;;;;24.40;77.20;;;;;;5093618;28;19909;-70
2022/10/04 04:47:21;;;;;;;;;;;24.40;77.60;;;;;;5093544;28;19924;-70
2022/10/04 04:49:49;;;;;;;;;;;24.30;77.60;;;;;;5093699;28;20352;-70
2022/10/04 04:52:17;;;;;;;;;;;24.30;78.40;;;;;;5075027;28;19916;-71
2022/10/04 04:54:46;;;;;;;;;;;24.00;78.40;;;;;;5093450;28;19919;-68
2022/10/04 04:57:18;;;;;;;;;;;23.90;79.50;;;;;;5074699;28;20279;-68
2022/10/04 04:59:50;;;;;;;;;;;23.70;79.60;;;;;;5090990;28;19998;-68
2022/10/04 05:02:27;;;;;;;;;;;23.50;80.10;;;;;;5073396;28;19913;-68
2022/10/04 05:05:14;;;;;;;;;;;23.50;80.30;;;;;;5073458;28;19934;-68
2022/10/04 05:07:43;;;;;;;;;;;23.30;81.50;;;;;;5065526;28;19923;-71
2022/10/04 05:10:20;;;;;;;;;;;23.00;81.10;;;;;;5090402;28;19912;-70
2022/10/04 05:12:47;;;;;;;;;;;22.90;81.90;;;;;;5092743;28;20376;-70
2022/10/04 05:15:14;;;;;;;;;;;22.80;82.50;;;;;;5092258;28;19915;-71
2022/10/04 05:17:41;;;;;;;;;;;22.70;82.90;;;;;;5074414;28;20391;-72
2022/10/04 05:20:11;;;;;;;;;;;22.70;83.30;;;;;;5074135;28;20007;-70
2022/10/04 05:22:38;;;;;;;;;;;22.60;84.10;;;;;;5092382;28;19912;-70
2022/10/04 05:25:09;;;;;;;;;;;22.60;84.20;;;;;;5092447;28;19908;-70
2022/10/04 05:27:43;;;;;;;;;;;22.40;84.90;;;;;;5091667;28;19931;-69
2022/10/04 05:30:19;;;;;;;;;;;22.30;85.30;;;;;;5093577;28;19908;-70
2022/10/04 05:32:49;;;;;;;;;;;22.20;85.60;;;;;;5090579;28;20070;-71
2022/10/04 05:35:19;;;;;;;;;;;22.00;86.00;;;;;;5091376;28;19911;-70
2022/10/04 05:37:52;;;;;;;;;;;22.00;86.20;;;;;;5089625;28;20006;-70
2022/10/04 05:40:26;;;;;;;;;;;22.00;86.10;;;;;;5089199;28;19968;-69
2022/10/04 05:42:56;;;;;;;;;;;21.80;86.10;;;;;;5073634;28;19912;-69
2022/10/04 05:45:25;;;;;;;;;;;21.80;86.70;;;;;;5091191;28;19912;-68
2022/10/04 05:47:53;;;;;;;;;;;21.70;86.80;;;;;;5092310;28;19917;-71
2022/10/04 05:50:41;;;;;;;;;;;21.60;87.30;;;;;;5092651;28;19935;-72
2022/10/04 05:53:14;;;;;;;;;;;21.60;87.60;;;;;;5091630;28;19919;-72
2022/10/04 05:56:01;;;;;;;;;;;21.50;88.00;;;;;;5092267;28;19908;-70
2022/10/04 05:58:33;;;;;;;;;;;21.40;88.20;;;;;;5088376;28;19908;-71
2022/10/04 06:01:00;;;;;;;;;;;21.30;87.80;;;;;;5092218;28;20353;-71
2022/10/04 06:03:37;;;;;;;;;;;21.30;87.60;;;;;;5091684;28;19916;-72
2022/10/04 06:06:17;;;;;;;;;;;21.20;87.70;;;;;;5073201;28;19912;-71
2022/10/04 06:08:43;;;;;;;;;;;21.20;87.70;;;;;;5091475;28;21294;-72
2022/10/04 06:11:25;;;;;;;;;;;21.30;88.00;;;;;;5091426;28;19912;-70
2022/10/04 06:13:52;;;;;;;;;;;21.30;87.90;;;;;;5087166;28;19970;-71
2022/10/04 06:16:40;;;;;;;;;;;21.20;88.40;;;;;;5091166;28;19977;-70
2022/10/04 06:19:25;;;;;;;;;;;21.20;86.90;;;;;;5090079;28;19908;-71
2022/10/04 06:21:55;;;;;;;;;;;21.20;86.70;;;;;;5090623;28;19940;-68
2022/10/04 06:24:25;;;;;;;;;;;21.20;87.00;;;;;;5091904;28;19908;-68
2022/10/04 06:27:01;;;;;;;;;;;21.00;87.30;;;;;;5087254;28;19920;-72
2022/10/04 06:29:36;;;;;;;;;;;20.90;87.80;;;;;;5083586;28;20018;-67
2022/10/04 06:32:33;;;;;;;;;;;20.80;88.00;;;;;;5087937;28;20527;-68
2022/10/04 06:35:08;;;;;;;;;;;20.80;88.00;;;;;;5088574;28;20011;-66
2022/10/04 06:37:53;;;;;;;;;;;20.50;88.80;;;;;;5090409;28;19912;-67
2022/10/04 06:40:29;;;;;;;;;;;20.50;89.50;;;;;;5073828;28;19908;-67
2022/10/04 06:43:04;;;;;;;;;;;20.50;89.80;;;;;;5092119;28;20965;-68
2022/10/04 06:45:40;;;;;;;;;;;20.40;90.00;;;;;;5091190;28;19915;-69
2022/10/04 06:48:09;;;;;;;;;;;20.40;89.70;;;;;;5090429;28;19916;-68
2022/10/04 06:50:36;;;;;;;;;;;20.30;90.10;;;;;;5090164;28;19963;-68
2022/10/04 06:53:11;;;;;;;;;;;20.30;90.30;;;;;;5088685;28;19916;-68
2022/10/04 06:56:04;;;;;;;;;;;20.10;90.50;;;;;;5086848;28;20352;-69
2022/10/04 06:58:44;;;;;;;;;;;20.10;90.40;;;;;;5082549;28;20427;-68
2022/10/04 07:01:15;;;;;;;;;;;20.10;90.70;;;;;;5069512;28;19920;-68
2022/10/04 07:03:47;;;;;;;;;;;20.00;90.60;;;;;;5087848;28;19998;-68
2022/10/04 07:06:15;;;;;;;;;;;19.90;90.80;;;;;;5090198;28;19908;-67
2022/10/04 07:08:50;;;;;;;;;;;19.90;90.90;;;;;;5091318;28;19920;-67
2022/10/04 07:11:23;;;;;;;;;;;19.90;91.00;;;;;;5092424;28;19908;-67
2022/10/04 07:13:55;;;;;;;;;;;19.90;91.10;;;;;;5089981;28;20052;-68
2022/10/04 07:16:28;;;;;;;;;;;19.90;91.20;;;;;;5092115;28;19916;-67
2022/10/04 07:18:55;;;;;;;;;;;19.80;91.20;;;;;;5092094;28;19909;-67
2022/10/04 07:21:26;;;;;;;;;;;19.80;91.30;;;;;;5091453;28;20300;-68
2022/10/04 07:23:55;;;;;;;;;;;19.80;91.50;;;;;;5090515;28;19912;-67
2022/10/04 07:26:22;;;;;;;;;;;19.70;91.50;;;;;;5092031;28;20385;-67
2022/10/04 07:31:35;;;;;;;;;;;19.70;91.70;;;;;;5092400;28;19931;-67
2022/10/04 07:34:09;;;;;;;;;;;19.70;91.90;;;;;;5091969;28;20433;-67
2022/10/04 07:36:53;;;;;;;;;;;19.60;91.80;;;;;;5092031;28;20318;-67
2022/10/04 07:39:26;;;;;;;;;;;19.60;91.90;;;;;;5092005;28;19908;-67
2022/10/04 07:42:13;;;;;;;;;;;19.50;92.00;;;;;;5091665;28;19908;-66
2022/10/04 07:44:41;;;;;;;;;;;19.50;92.00;;;;;;5091736;28;19914;-66
2022/10/04 07:47:10;;;;;;;;;;;19.50;92.10;;;;;;5091666;28;19916;-67
2022/10/04 07:49:38;;;;;;;;;;;19.40;92.20;;;;;;5091752;28;20425;-67
2022/10/04 07:52:05;;;;;;;;;;;19.40;92.70;;;;;;5091118;28;19965;-68
2022/10/04 07:54:46;;;;;;;;;;;19.40;92.50;;;;;;5091710;28;19908;-68
2022/10/04 07:57:13;;;;;;;;;;;19.30;92.60;;;;;;5091736;28;19915;-67
2022/10/04 07:59:39;;;;;;;;;;;19.30;92.80;;;;;;5091380;28;19934;-66
2022/10/04 08:02:38;;;;;;;;;;;19.20;92.80;;;;;;5091285;28;19916;-67
2022/10/04 08:05:17;;;;;;;;;;;19.20;93.00;;;;;;5040905;28;20258;-67
2022/10/04 08:08:01;;;;;;;;;;;19.20;93.00;;;;;;5091796;28;20373;-67
2022/10/04 08:10:30;;;;;;;;;;;19.20;93.00;;;;;;5058270;28;20365;-68
2022/10/04 08:13:05;;;;;;;;;;;19.20;93.20;;;;;;5073798;28;19912;-68
2022/10/04 08:15:39;;;;;;;;;;;19.10;93.10;;;;;;5075296;28;19909;-67
2022/10/04 08:18:29;;;;;;;;;;;19.10;93.20;;;;;;5075267;28;20284;-67
2022/10/04 08:21:00;;;;;;;;;;;19.10;93.20;;;;;;5074821;28;19966;-68
2022/10/04 08:23:39;;;;;;;;;;;19.00;93.40;;;;;;5056987;28;19917;-68
2022/10/04 08:26:24;;;;;;;;;;;19.00;93.50;;;;;;5074837;28;19915;-68
2022/10/04 08:31:51;;;;;;;;;;;19.00;93.80;;;;;;5075129;28;19962;-68
2022/10/04 08:34:32;;;;;;;;;;;18.90;94.00;;;;;;5074649;28;19908;-68
2022/10/04 08:37:14;;;;;;;;;;;18.90;93.80;;;;;;5074616;28;19919;-68
2022/10/04 08:39:59;;;;;;;;;;;18.80;93.80;;;;;;5074472;28;19978;-69
2022/10/04 08:42:32;;;;;;;;;;;18.90;93.90;;;;;;5074587;28;19912;-68
2022/10/04 08:45:02;;;;;;;;;;;18.90;93.90;;;;;;5074585;28;19913;-69
2022/10/04 08:47:28;;;;;;;;;;;18.90;93.90;;;;;;5074768;28;20019;-68
2022/10/04 08:50:13;;;;;;;;;;;18.90;93.90;;;;;;5074711;28;20146;-68
2022/10/04 08:52:58;;;;;;;;;;;18.90;94.10;;;;;;5074801;28;20258;-69
2022/10/04 08:55:25;;;;;;;;;;;18.90;94.20;;;;;;5074821;28;20003;-68
2022/10/04 08:57:57;;;;;;;;;;;18.80;94.30;;;;;;5074441;28;20317;-69
2022/10/04 09:00:46;;;;;;;;;;;18.80;94.30;;;;;;5074185;28;19955;-68
2022/10/04 09:03:18;;;;;;;;;;;18.70;94.40;;;;;;5033716;28;20269;-69
2022/10/04 09:05:45;;;;;;;;;;;18.70;94.50;;;;;;5074159;28;19909;-69
2022/10/04 09:08:30;;;;;;;;;;;18.70;94.50;;;;;;5074022;28;19916;-69
2022/10/04 09:11:20;;;;;;;;;;;18.70;94.60;;;;;;5056047;28;20884;-68
2022/10/04 09:14:04;;;;;;;;;;;18.70;94.70;;;;;;5036590;28;19936;-69
2022/10/04 09:16:36;;;;;;;;;;;18.70;95.00;;;;;;5077050;22;19931;-74
2022/10/04 09:19:18;;;;;;;;;;;18.70;95.00;;;;;;5052446;28;20304;-72
2022/10/04 09:21:57;;;;;;;;;;;18.70;95.20;;;;;;5053707;28;19920;-69
2022/10/04 09:24:27;;;;;;;;;;;18.70;95.30;;;;;;5052395;28;19916;-70
2022/10/04 09:27:12;;;;;;;;;;;18.70;95.60;;;;;;5052368;28;19956;-71
2022/10/04 09:29:45;;;;;;;;;;;18.70;96.10;;;;;;5053616;28;20403;-70
2022/10/04 09:32:32;;;;;;;;;;;18.80;96.70;;;;;;5052162;28;19922;-70
2022/10/04 09:35:05;;;;;;;;;;;18.80;97.50;;;;;;5052280;28;20315;-69
2022/10/04 09:37:50;;;;;;;;;;;18.80;98.00;;;;;;5052269;28;19909;-72
2022/10/04 09:40:38;;;;;;;;;;;18.80;98.30;;;;;;5053317;28;19909;-69
2022/10/04 09:43:08;;;;;;;;;;;18.80;98.90;;;;;;5050697;28;19912;-72
2022/10/04 09:45:40;;;;;;;;;;;18.70;99.20;;;;;;5053146;28;19912;-70
2022/10/04 09:48:16;;;;;;;;;;;18.70;99.30;;;;;;5053287;28;20015;-72
2022/10/04 09:50:46;;;;;;;;;;;18.70;99.50;;;;;;5051788;28;19909;-73
2022/10/04 09:53:22;;;;;;;;;;;18.70;99.50;;;;;;5052974;28;20365;-69
2022/10/04 09:55:57;;;;;;;;;;;18.70;99.50;;;;;;5053337;28;19916;-69
2022/10/04 09:58:45;;;;;;;;;;;18.70;99.50;;;;;;5052827;28;19963;-72
2022/10/04 10:01:28;;;;;;;;;;;18.70;99.60;;;;;;5052958;28;19908;-70
2022/10/04 10:04:09;;;;;;;;;;;18.70;99.70;;;;;;5052599;28;19909;-72
2022/10/04 10:06:45;;;;;;;;;;;18.60;99.50;;;;;;5052806;28;20284;-73
2022/10/04 10:13:38;;;;;;;;;;;18.60;98.20;;;;;;5052937;28;19916;-70
2022/10/04 10:15:14;;;;;;;;;;;18.50;97.40;;;;;;5052165;28;20637;-70
2022/10/04 10:17:55;;;;;;;;;;;18.60;97.20;;;;;;5070524;28;19970;-70
2022/10/04 10:20:22;;;;;;;;;;;18.60;97.20;;;;;;5072795;28;20321;-69
2022/10/04 10:22:57;;;;;;;;;;;18.60;97.20;;;;;;5072480;28;19940;-72
2022/10/04 10:25:32;;;;;;;;;;;18.50;97.30;;;;;;5072442;28;19959;-69
2022/10/04 10:28:17;;;;;;;;;;;18.60;97.80;;;;;;5072221;28;19943;-71
2022/10/04 10:30:57;;;;;;;;;;;18.60;98.00;;;;;;5072110;28;19947;-69
2022/10/04 10:33:24;;;;;;;;;;;18.60;98.30;;;;;;5072062;28;19963;-70
2022/10/04 10:36:06;;;;;;;;;;;18.60;98.40;;;;;;5071576;28;20337;-71
2022/10/04 10:38:50;;;;;;;;;;;18.60;98.50;;;;;;5072003;28;19916;-69
2022/10/04 10:41:18;;;;;;;;;;;18.60;98.60;;;;;;5072144;28;19915;-69
2022/10/04 10:43:54;;;;;;;;;;;18.60;98.80;;;;;;5071892;28;19913;-72
2022/10/04 10:46:39;;;;;;;;;;;18.70;98.90;;;;;;5070872;28;19970;-70
2022/10/04 10:49:19;;;;;;;;;;;18.60;99.40;;;;;;5071417;28;19947;-70
2022/10/04 10:52:05;;;;;;;;;;;18.60;99.90;;;;;;5072095;28;19935;-70
2022/10/04 10:54:47;;;;;;;;;;;18.60;99.90;;;;;;5052024;28;19912;-71
2022/10/04 10:57:17;;;;;;;;;;;18.70;99.90;;;;;;5052090;28;19909;-73
2022/10/04 10:59:50;;;;;;;;;;;18.60;99.90;;;;;;5051859;28;19915;-76
2022/10/04 11:02:35;;;;;;;;;;;18.60;99.90;;;;;;5054314;28;19916;-77
2022/10/04 11:05:19;;;;;;;;;;;18.50;99.90;;;;;;5070827;28;19912;-73
2022/10/04 11:07:53;;;;;;;;;;;18.60;99.90;;;;;;5064253;28;20292;-73
2022/10/04 11:10:22;;;;;;;;;;;18.60;99.90;;;;;;5071099;28;19975;-69
2022/10/04 11:12:55;;;;;;;;;;;18.50;99.90;;;;;;5071285;28;19919;-70
2022/10/04 11:15:33;;;;;;;;;;;18.50;99.90;;;;;;5070977;28;19909;-71
2022/10/04 11:18:20;;;;;;;;;;;18.40;99.90;;;;;;5070954;28;19927;-71
2022/10/04 11:21:06;;;;;;;;;;;18.40;99.90;;;;;;5071260;28;19917;-74
2022/10/04 11:23:56;;;;;;;;;;;18.40;99.90;;;;;;5071168;28;20034;-72
2022/10/04 11:26:28;;;;;;;;;;;18.40;99.90;;;;;;5071162;28;20392;-74
2022/10/04 11:29:13;;;;;;;;;;;18.40;99.90;;;;;;5070405;28;19921;-69
2022/10/04 11:31:58;;;;;;;;;;;18.40;99.90;;;;;;5067528;28;19998;-70
2022/10/04 11:34:24;;;;;;;;;;;18.40;99.90;;;;;;5069423;28;19924;-71
2022/10/04 11:37:03;;;;;;;;;;;18.40;99.90;;;;;;5071028;28;19908;-74
2022/10/04 11:39:33;;;;;;;;;;;18.40;99.90;;;;;;5070488;28;19909;-76
2022/10/04 11:42:25;;;;;;;;;;;18.40;99.90;;;;;;5052636;28;19966;-73
2022/10/04 11:45:05;;;;;;;;;;;18.40;99.90;;;;;;5011229;28;19963;-72
2022/10/04 11:47:34;;;;;;;;;;;18.30;99.90;;;;;;5054136;28;19916;-73
2022/10/04 11:50:19;;;;;;;;;;;18.30;99.90;;;;;;5054722;28;19975;-75
2022/10/04 11:53:03;;;;;;;;;;;18.30;99.90;;;;;;5059691;28;19919;-75
2022/10/04 11:55:52;;;;;;;;;;;18.30;99.90;;;;;;5074942;28;19908;-75
2022/10/04 11:58:20;;;;;;;;;;;18.30;99.90;;;;;;5074901;28;19915;-74
2022/10/04 12:00:46;;;;;;;;;;;18.30;99.90;;;;;;5057071;28;19913;-74
2022/10/04 12:03:34;;;;;;;;;;;18.30;99.90;;;;;;5074473;28;19912;-79
2022/10/04 12:06:03;;;;;;;;;;;18.30;99.90;;;;;;5074973;28;19909;-76
2022/10/04 12:08:36;;;;;;;;;;;18.20;99.90;;;;;;5074980;28;19947;-73
2022/10/04 12:11:13;;;;;;;;;;;18.20;99.90;;;;;;5056576;28;19991;-76
2022/10/04 12:13:42;;;;;;;;;;;18.20;99.90;;;;;;5056097;28;19966;-77
2022/10/04 12:16:28;;;;;;;;;;;18.20;99.90;;;;;;5074431;28;19916;-74
2022/10/04 12:19:00;;;;;;;;;;;18.20;99.90;;;;;;5074269;28;20323;-74
2022/10/04 12:21:45;;;;;;;;;;;18.30;99.90;;;;;;5074255;28;19962;-72
2022/10/04 12:24:31;;;;;;;;;;;18.30;99.90;;;;;;5074260;28;20376;-69
2022/10/04 12:27:01;;;;;;;;;;;18.30;99.90;;;;;;5073906;28;19916;-71
2022/10/04 12:29:47;;;;;;;;;;;18.20;99.90;;;;;;5073863;28;19910;-69
2022/10/04 12:32:26;;;;;;;;;;;18.20;99.90;;;;;;5073891;28;19934;-71
2022/10/04 12:34:52;;;;;;;;;;;18.20;99.90;;;;;;5074285;28;20280;-69
2022/10/04 12:37:28;;;;;;;;;;;18.20;99.90;;;;;;5074195;28;19912;-69
2022/10/04 12:39:54;;;;;;;;;;;18.20;99.90;;;;;;5074015;28;20293;-69
2022/10/04 12:42:33;;;;;;;;;;;18.20;99.90;;;;;;5073606;28;19915;-69
2022/10/04 12:45:00;;;;;;;;;;;18.20;99.90;;;;;;5073573;28;20578;-69
2022/10/04 12:47:36;;;;;;;;;;;18.20;99.90;;;;;;5055714;28;20014;-70
2022/10/04 12:50:14;;;;;;;;;;;18.20;99.90;;;;;;5073715;28;19908;-71
2022/10/04 12:52:49;;;;;;;;;;;18.20;99.90;;;;;;5073552;28;19912;-72
2022/10/04 12:55:34;;;;;;;;;;;18.20;99.90;;;;;;5073737;28;19909;-70
2022/10/04 12:58:03;;;;;;;;;;;18.20;99.90;;;;;;5073069;28;19909;-70
2022/10/04 13:00:33;;;;;;;;;;;18.20;99.90;;;;;;5073876;28;19909;-69
2022/10/04 13:03:07;;;;;;;;;;;18.10;99.90;;;;;;5072625;28;19912;-69
2022/10/04 13:05:36;;;;;;;;;;;18.10;99.90;;;;;;5072939;28;20429;-70
2022/10/04 13:08:21;;;;;;;;;;;18.10;99.90;;;;;;5073460;28;19920;-69
2022/10/04 13:11:06;;;;;;;;;;;18.10;99.90;;;;;;5073667;28;19953;-70
2022/10/04 13:13:52;;;;;;;;;;;18.10;99.90;;;;;;5072547;28;19912;-69
2022/10/04 13:16:41;;;;;;;;;;;18.10;99.90;;;;;;5072991;28;19920;-69
2022/10/04 13:19:08;;;;;;;;;;;18.00;99.90;;;;;;5073315;28;20067;-71
2022/10/04 13:21:40;;;;;;;;;;;18.10;99.90;;;;;;5054713;28;19947;-69
2022/10/04 13:24:28;;;;;;;;;;;18.00;99.90;;;;;;5072319;28;19913;-69
2022/10/04 13:27:01;;;;;;;;;;;18.00;99.90;;;;;;5023106;28;19964;-69
2022/10/04 13:29:30;;;;;;;;;;;18.00;99.90;;;;;;5072890;28;19948;-68
2022/10/04 13:32:13;;;;;;;;;;;18.00;99.90;;;;;;5072831;28;19908;-75
2022/10/04 13:34:52;;;;;;;;;;;18.10;99.90;;;;;;5073471;28;19952;-75
2022/10/04 13:37:41;;;;;;;;;;;18.00;99.90;;;;;;5073515;28;20531;-75
2022/10/04 13:40:40;;;;;;;;;;;18.00;99.90;;;;;;5055168;28;19918;-69
2022/10/04 13:43:07;;;;;;;;;;;18.00;99.90;;;;;;5017834;28;19912;-69
2022/10/04 13:45:34;;;;;;;;;;;18.00;99.90;;;;;;5072883;28;19957;-70
2022/10/04 13:48:19;;;;;;;;;;;18.00;99.90;;;;;;5072711;28;19920;-69
2022/10/04 13:51:11;;;;;;;;;;;18.00;99.90;;;;;;5072651;28;19908;-68
2022/10/04 13:56:41;;;;;;;;;;;18.10;99.90;;;;;;5072790;28;19915;-70
2022/10/04 13:59:31;;;;;;;;;;;18.10;99.90;;;;;;5072460;28;20001;-69
2022/10/04 14:02:09;;;;;;;;;;;18.00;99.90;;;;;;5059392;28;19925;-69
2022/10/04 14:04:35;;;;;;;;;;;18.00;99.90;;;;;;5072466;28;19908;-69
2022/10/04 14:07:06;;;;;;;;;;;17.90;99.90;;;;;;5071856;28;20053;-68
2022/10/04 14:09:41;;;;;;;;;;;17.90;99.90;;;;;;5071352;28;20014;-70
2022/10/04 14:12:24;;;;;;;;;;;17.90;99.90;;;;;;5054189;28;19958;-68
2022/10/04 14:15:03;;;;;;;;;;;17.80;99.90;;;;;;5071950;28;20375;-70
2022/10/04 14:17:48;;;;;;;;;;;17.90;99.90;;;;;;5071896;28;19920;-69
2022/10/04 14:20:15;;;;;;;;;;;17.90;99.90;;;;;;5072257;28;19909;-69
2022/10/04 14:23:00;;;;;;;;;;;18.00;99.90;;;;;;5071673;28;19912;-73
2022/10/04 14:25:49;;;;;;;;;;;17.90;99.90;;;;;;5072181;28;19999;-68
2022/10/04 14:28:35;;;;;;;;;;;18.00;99.90;;;;;;5072304;28;19926;-70
2022/10/04 14:31:19;;;;;;;;;;;18.00;99.90;;;;;;5071498;28;20390;-69
2022/10/04 14:33:55;;;;;;;;;;;17.90;99.90;;;;;;5071742;28;19913;-69
2022/10/04 14:36:31;;;;;;;;;;;17.90;99.90;;;;;;5071644;28;19958;-68
2022/10/04 14:38:58;;;;;;;;;;;17.90;99.90;;;;;;5072406;28;19912;-69
2022/10/04 14:41:33;;;;;;;;;;;18.00;99.90;;;;;;5071609;28;19966;-69
2022/10/04 14:44:18;;;;;;;;;;;17.90;99.90;;;;;;5072355;28;19935;-69
2022/10/04 14:47:10;;;;;;;;;;;17.90;99.90;;;;;;5071221;28;19912;-68
2022/10/04 14:49:47;;;;;;;;;;;17.90;99.90;;;;;;5071234;28;19909;-70
2022/10/04 14:52:19;;;;;;;;;;;17.90;99.90;;;;;;5053830;28;20005;-69
2022/10/04 14:54:49;;;;;;;;;;;18.00;99.90;;;;;;5071776;28;20329;-70
2022/10/04 14:57:33;;;;;;;;;;;18.00;99.90;;;;;;5071319;28;20400;-70
2022/10/04 15:00:00;;;;;;;;;;;17.90;99.90;;;;;;5071466;28;19923;-68
2022/10/04 15:02:30;;;;;;;;;;;17.90;99.90;;;;;;5071574;28;20238;-69
2022/10/04 15:05:13;;;;;;;;;;;17.90;99.90;;;;;;5071374;28;19909;-70
2022/10/04 15:07:49;;;;;;;;;;;17.80;99.90;;;;;;5071360;28;19921;-69
2022/10/04 15:10:25;;;;;;;;;;;17.80;99.90;;;;;;5053710;28;19916;-69
2022/10/04 15:13:20;;;;;;;;;;;17.70;99.90;;;;;;5071339;28;20399;-70
2022/10/04 15:15:53;;;;;;;;;;;17.70;99.90;;;;;;5033819;28;19956;-68